METARS
Date METAR Location Area
20/10/2014 LGY7 200330Z 00007KT 17/09 Q1023 Aegina Attica
20/10/2014 LGH5 200330Z 04501KT 15/08 Q1023 Ampelokipoi Attica
20/10/2014 LGS5 200330Z 29303KT 16/10 Q1017 Anavissos Attica
20/10/2014 LGO0 200330Z 31502KT 13/07 Q1023 Ano Liosia Attica
20/10/2014 LGB9 200330Z 00000KT 15/08 Q1024 Athens - Gazi Attica
20/10/2014 LGL5 200330Z 02308KT 13/08 Q1022 Ekali Attica
20/10/2014 LGS3 200330Z 33800KT 16/09 Q1023 Faliro Attica
18/10/2014 LGI4 180700Z 00000G31104KT 257/145 Q10166 Hydra Attica
20/10/2014 LGM3 200330Z 13503KT 18/10 Q1024 Hydra Attica
20/10/2014 LGO2 200230Z 02304KT 09/02 Q1024 Imittos Attica
18/10/2014 LGT8 180430Z 27002KT 19/11 Q1015 Ippokratios Attica
20/10/2014 LG99 200330Z 31500KT 14/07 Q1024 Kantza Attica
19/10/2014 LG13 192015Z 00000KT 13/07 Q1027 Kifissia Attica
20/10/2014 LGD6 200330Z 00011KT 18/11 Q1021 Lavrio Attica
20/10/2014 LGK0 200330Z 00003KT 14/08 Q1023 Marousi Attica
20/10/2014 LG00 200400Z 00000KT 12/06 Q1021 Marousi (Anavrita) Attica
20/10/2014 LGR0 200330Z 00000KT 16/08 Q1023 Nea Smirni Attica
20/10/2014 LGM8 200230Z 31502KT 16/08 Q1025 Neos Kosmos Attica
20/10/2014 LGA3 200410Z 30010KT 14/06 Q1023 Pallini - Kantza 2 Attica
20/10/2014 LGK3 200330Z 02325KT 07/03 Q1023 Parnitha 1230 EAA Attica
20/10/2014 LGT6 200330Z 24801KT 16/08 Q1024 Patissia Attica
20/10/2014 LGX9 200330Z 27007KT 12/07 Q1020 Penteli Attica
20/10/2014 LG67 200400Z 0006966G14796KT 140/82 Q10232 Penteli Attica
20/10/2014 LGU0 200330Z 18003KT 15/07 Q1024 Peristeri Attica
20/10/2014 LGY6 200330Z 31506KT 16/10 Q1023 Porto Rafti Attica
20/10/2014 LG96 200330Z 04502KT 14/09 Q1023 Psychico Attica
20/10/2014 LGZ0 200330Z 33812KT 16/10 Q1022 Rafina Attica
20/10/2014 LGG2 200330Z 02303KT 15/08 Q1022 Spata Attica
20/10/2014 LGS6 200330Z 31510KT 18/12 Q1022 Spetses Attica
20/10/2014 LGZ2 200330Z 33801KT 13/06 Q1023 Vari Attica
02/10/2014 LGR6 020830Z 33811KT 19/12 Q1021 Vilia Attica
17/10/2014 LG74 170500Z 00000G31104KT 224/180 Q10158 Ymittos Attica
20/10/2014 LGG1 200100Z 045864G6102KT 139/72 Q118 Kalivia Thorikou Attica E
20/10/2014 LG45 200330Z 02303KT 14/10 Q1025 Markopoulo Attica E
18/10/2014 LG72 181110Z 00000G31104KT 299/115 Q10131 Keratea Attica SE
20/10/2014 LGW4 200330Z 02303KT 11/M03 Q1015 Ag. Ioannis Sfakion Crete
20/10/2014 LGJ9 200330Z 33810KT 19/11 Q1018 Aghios Nikolaos Crete
20/10/2014 LGT4 200330Z 00000KT 14/10 Q1021 Alikianos Crete
20/10/2014 LGB6 200330Z 29310KT 11/08 Q1018 Anogeia Crete
06/10/2014 LGZ6 060730Z 18006KT 19/16 Q1023 Askyfou Crete
20/10/2014 LG25 200330Z 02301KT 16/09 Q1021 Chania Crete
20/10/2014 LGN3 200330Z 18000KT 17/10 Q1022 Chania Center Crete
20/10/2014 LG61 200330Z 33817KT 19/13 Q1019 Cost - Irakleio Crete
20/10/2014 LGL9 200330Z 04510KT 19/10 Q1019 Falasarna Crete
20/10/2014 LG9A 200330Z 31523KT 17/10 Q1017 Finokalia - Lasithi Crete
20/10/2014 LGL1 200330Z 33825G36KT 14/09 Q1017 Fourfouras Crete
30/09/2014 LGD4 300730Z 33807KT 26/15 Q1012 Fragmapotamon - Rethymno Crete
20/10/2014 LG30 200330Z 33807KT 18/11 Q1020 Heraklion - Knossos Crete
20/10/2014 LG95 200330Z 00017G30KT 19/11 Q1016 Ierapetra Crete
20/10/2014 LGP0 200330Z 04523G40KT 19/10 Q1015 Lentas Hrakleion Crete
18/10/2014 LGD7 181700Z 04504KT 16/11 Q1023 Metaxochori - Heraklion Crete
20/10/2014 LGI2 200330Z 09003KT 14/10 Q1018 Mires Crete
20/10/2014 LG36 200330Z 04510G23KT 18/09 Q1017 Paleochora Crete
20/10/2014 LG8A 200330Z 04503KT 15/10 Q1014 Pirathi Heraklion Crete
20/10/2014 LG58 200330Z 00010KT 19/11 Q1019 Rethymno Crete
20/10/2014 LGT2 200330Z 00021G41KT 19/10 Q1017 Rethymno - Plakia Crete
20/10/2014 LGB4 200330Z 31504KT 08/04 Q1020 Samaria Crete
19/10/2014 LGY1 191830Z 18002KT 17/06 Q1022 Samaria Crete
20/10/2014 LGM2 200330Z 31512KT 19/12 Q1017 Sitia Crete
20/10/2014 LG75 200330Z 00003KT 15/08 Q1021 Spili - Rethymnon Crete
20/10/2014 LG50 200330Z 33800KT 11/08 Q1019 Tzermiado Lasithi Crete
20/10/2014 LG70 200330Z 00000KT 14/10 Q1020 Vrysses Crete
20/10/2014 LGT5 200330Z 02307KT 17/11 Q1019 Amorgos Cyclades
20/10/2014 LGN6 200330Z 00014KT 16/08 Q1022 Andros Cyclades
20/10/2014 LGS7 200330Z 02316G30KT 17/10 Q1020 Donoussa Cyclades
20/10/2014 LGI0 200330Z 00019KT 17/11 Q1020 Ios Cyclades
20/10/2014 LGP2 200330Z 02312KT 14/07 Q1025 Ioulida - Kea Cyclades
20/10/2014 LGP5 200330Z 20302KT 14/08 Q1020 Iraklia Cyclades
20/10/2014 LGE3 200330Z 00008KT 17/06 Q1023 Kea Cyclades
20/10/2014 LGX8 200330Z 00015KT 17/09 Q1020 Koufonissia Cyclades
20/10/2014 LGS0 200330Z 02313KT 16/09 Q1023 Milos Cyclades
20/10/2014 LG66 200330Z 04517G28KT 17/11 Q1021 Mykonos Cyclades
20/10/2014 LGM0 200330Z 00022KT 17/11 Q1021 Naxos Cyclades
20/10/2014 LGV3 200330Z 04500KT 09/M05 Q1021 Naxos - Apiranthos Cyclades
08/10/2014 LGT0 080930Z 31507KT 22/19 Q1020 Naxos - Apollonas Cyclades
20/10/2014 LGU1 200330Z 02303KT 13/05 Q1020 Naxos - Damarionas Cyclades
20/10/2014 LGU2 200130Z 00000KT 00/00 Q 0 Naxos - Koronos Cyclades
20/10/2014 LGN7 200330Z 31503KT 13/09 Q1020 Naxos - Kynidaros Cyclades
20/10/2014 LGW1 200330Z 00004G18KT 15/10 Q1020 Naxos - Melanes Cyclades
09/10/2014 LGO7 091330Z 00017KT 26/20 Q1012 Naxos - Mikri Vigla Cyclades
20/10/2014 LG02 200330Z 00014KT 17/11 Q1022 Paros Cyclades
20/10/2014 LGX5 200330Z 02311KT 15/09 Q1018 Santorini Cyclades
20/10/2014 LGX7 200330Z 02316KT 16/08 Q1020 Schinoussa Cyclades
07/07/2014 LG07 070630Z 00000KT 255/97 Q10099 Tinos Cyclades
20/10/2014 LGB8 200330Z 02306G19KT 16/10 Q1021 Tinos NOA Cyclades
20/10/2014 LGAB 200330Z 18004KT 15/04 Q1013 Emponas - Rhodes Dodecanese
16/10/2014 LGG6 161230Z 13503KT 25/20 Q1018 Kalymnos Dodecanese
20/10/2014 LGAC 200330Z 33802KT 17/04 Q1013 Kattavia - Rhodes Dodecanese
19/10/2014 LGAA 192330Z 33814G25KT 20/03 Q1016 Lindos - Rhodes Dodecanese
20/10/2014 LG65 200330Z 31507KT 16/09 Q1019 Patmos Dodecanese
20/10/2014 LGS9 200330Z 29303KT 18/02 Q1016 Rhodes Dodecanese
20/10/2014 LGM5 200030Z 31517KT 20/15 Q1016 Kasos Dodecanisa
20/10/2014 LGX1 200330Z 33804KT 16/05 Q1017 Kos Dodekanissa
20/10/2014 LG4A 200330Z 00008KT 14/08 Q1021 Chios East Aegean
19/10/2014 LGT1 190930Z 31512G23KT 19/12 Q1021 Fournoi East Aegean
20/10/2014 LGI9 200330Z 00001KT 10/07 Q1019 Ikaria East Aegean
20/10/2014 LGI5 200330Z 02301KT 08/06 Q1023 Lemnos East Aegean
20/10/2014 LGI6 200330Z 15802KT 10/06 Q1022 Lesvos East Aegean
20/10/2014 LGJ3 200330Z 04507KT 14/08 Q1025 Lesvos - Thermi East Aegean
20/10/2014 LGZ7 200330Z 00000KT 11/07 Q1023 Mantamados East Aegean
20/10/2014 LGY5 200330Z 11303KT 08/05 Q1024 Molyvos East Aegean
20/10/2014 LGF1 200330Z 00003KT 15/09 Q1020 Samos East Aegean
20/10/2014 LGW7 200330Z 33827G38KT 14/07 Q1016 Akrotirio Paksimada Evia
20/10/2014 LGO3 200330Z 33809KT 14/08 Q1022 Chalkida Evia
20/10/2014 LGR5 200230Z 31522KT 13/09 Q1023 Kavodoro Evia
09/10/2014 LGY0 090700Z 11300KT 09/05 Q1034 Krieza Evia
20/10/2014 LGX0 200330Z 31503KT 14/10 Q1025 Kymi Evia
25/09/2014 LGT7 251000Z 27004KT 09/07 Q1011 Setta Evia
20/10/2014 LG81 200330Z 33800KT 10/07 Q1023 Steni Evia
19/10/2014 LGC4 192030Z 02307KT 17/09 Q1026 Styra Evia
20/10/2014 LGD3 200330Z 00003KT 15/10 Q1024 Zarakes Evia
20/10/2014 LGP6 200330Z 13501KT 04/04 Q1025 Agia Kyriaki Ioanninon Hepirus
15/10/2014 LGO1 152330Z 00000KT 17/16 Q1015 Aridaia Hepirus
20/10/2014 LGD2 200330Z 04500KT 12/08 Q1022 Arta - Kompoti Hepirus
20/10/2014 LG38 200330Z 02303KT 15/08 Q1023 Arta - Vlacherna Hepirus
19/10/2014 LGE4 191130Z 13504KT 19/07 Q1024 Aspraggeloi Hepirus
20/10/2014 LGI3 200330Z 04501KT 08/08 Q1023 Derviziana Hepirus
20/10/2014 LGP4 200330Z 04500KT 09/07 Q1022 Dodoni Hepirus
02/10/2014 LGL8 021430Z 02304KT 24/07 Q1015 Grammos Hepirus
20/10/2014 LG43 200330Z 04503KT 13/10 Q1021 Igoumenitsa Hepirus
20/10/2014 LG49 200330Z 00000KT 04/04 Q1022 Ioannina Anatoli Hepirus
20/10/2014 LGK1 200330Z 02303KT 15/11 Q1023 Kanali, Preveza Hepirus
20/10/2014 LGE0 200330Z 02300KT 10/05 Q1023 Katarraktis - Arta Hepirus
20/10/2014 LGO5 200330Z 11304KT 07/03 Q1023 Kerasovo Konitsa Hepirus
20/10/2014 LG3A 200330Z 02302KT 08/06 Q1024 Konitsa Hepirus
20/10/2014 LGO8 200330Z 31501KT 07/03 Q1023 Metsovo Hepirus
20/10/2014 LGK6 200330Z 24800KT 07/05 Q1024 Papigo Hepirus
19/10/2014 LGF6 192030Z 00000KT 14/09 Q1024 Paramythia Hepirus
20/10/2014 LGK9 200330Z 06801KT 16/13 Q1023 Parga Hepirus
20/10/2014 LGK7 200030Z 02302KT 13/06 Q1023 Pesta Hepirus
19/10/2014 LGY9 192130Z 27002KT 08/06 Q1008 Plikati Ioanninon Hepirus
20/10/2014 LGP1 200330Z 00000KT 09/05 Q1023 Pramanta Hepirus
20/10/2014 LGK2 200330Z 00000KT 06/04 Q1025 Theodoriana, Arta Hepirus
20/10/2014 LGD0 200330Z 00000KT 07/04 Q1022 Tristeno - Ioannina Hepirus
20/10/2014 LGM4 200330Z 20300KT 05/04 Q1023 Tyria Hepirus
20/10/2014 LGR8 200330Z 33801KT 10/06 Q1022 Vourgareli Artas Hepirus
20/10/2014 LGN9 200230Z 00000KT 00/M01 Q1027 Vovoussa Hepirus
20/10/2014 LGN0 200330Z 31500KT 11/07 Q1022 Zitsa Hepirus
20/10/2014 LGJ2 200330Z 00000KT 15/13 Q1023 Corfu - Gouvia Ionio
20/10/2014 LGB0 200330Z 00000KT 15/11 Q1023 Ithaki Ionio
20/10/2014 LGI7 200330Z 20301KT 14/10 Q1024 Lefkada Ionio
20/10/2014 LGN1 200330Z 15800KT 17/13 Q1021 Paxoi Ionio
20/10/2014 LGN4 200330Z 00000KT 15/12 Q1021 Zakynthos Ionio
20/10/2014 LGG9 200330Z 00000KT 07/05 Q1023 Amynteo Macedonia
20/10/2014 LG33 200330Z 00000KT 10/08 Q1023 Chalkidiki - Polygyros Macedonia
11/10/2014 LGJ1 111630Z 27000KT 16/14 Q1019 Chalkidiki - Stratoni Macedonia
20/10/2014 LGZ5 200330Z 31501KT 04/02 Q1025 Didymoteicho Macedonia
16/10/2014 LG55 161930Z 00000KT 18/17 Q1013 Dion Macedonia
20/10/2014 LGU8 200330Z 15800KT 09/07 Q1024 Doxato - Drama Macedonia
20/10/2014 LGH3 200350Z 11200KT 08/06 Q1024 Drama Macedonia
20/10/2014 LGH6 200330Z 00000KT 09/07 Q1024 Drama 2 Macedonia
17/10/2014 LGY3 170630Z 00000KT 18/16 Q1015 Eleutheroupoli Macedonia
27/09/2014 LGJ6 272050Z 15916G27KT 02/02 Q1009 Falakro Macedonia
19/10/2014 LG63 191430Z 11300KT 18/10 Q1027 Florina Macedonia
20/10/2014 LGZ8 200230Z 00000KT 11/08 Q1025 Fotolivos Macedonia
20/10/2014 LG73 200330Z 00000KT 10/09 Q1024 Giannitsa Macedonia
20/10/2014 LGF2 200330Z 00000KT 04/02 Q1026 Grevena Macedonia
20/10/2014 LGO4 200330Z 09001KT 07/06 Q1025 Hmathia - Rizomata Macedonia
20/10/2014 LG93 200330Z 00004KT 05/M20 Q1027 Kaimaktsalan Macedonia
27/09/2014 LGN8 272050Z 19217G43KT 32/29 Q979 Kartakla - Falakro Macedonia
20/10/2014 LGO9 200330Z 00000KT 12/10 Q1024 Kassandreia (Xalkidiki) Macedonia
20/10/2014 LG27 200350Z 02000KT 13/08 Q1025 Kavala - Dexameni Macedonia
05/10/2014 LGA2 052147Z 00000KT 01/00 Q1022 Kavala - Eleftheroupoli Macedonia
20/10/2014 LG42 200330Z 06802KT 12/10 Q1023 Kilkis Macedonia
20/10/2014 LGW8 200330Z 02303KT 13/09 Q1025 Kimisi Macedonia
20/10/2014 LGJ4 200330Z 00000KT 05/04 Q1028 Kozani - Ardassa Macedonia
20/10/2014 LGP3 200330Z 29303KT 05/05 Q1024 Lailias - Serres Macedonia
20/10/2014 LGZ9 200330Z 04501KT 06/05 Q1025 Mavropigi Macedonia
20/10/2014 LG40 200330Z 22501KT 12/06 Q1025 Naousa Macedonia
20/10/2014 LGZ4 200330Z 11301KT 14/10 Q1024 Neos Marmaras Macedonia
20/10/2014 LG48 200330Z 02303KT 04/03 Q 0 Nevrokopi Drama Macedonia
20/10/2014 LGS4 200330Z 00000KT 08/06 Q1023 Notio Pedio - Eordea Macedonia
20/10/2014 LGW0 200330Z 00000KT 05/04 Q1026 Paranesti Macedonia
20/10/2014 LG26 200330Z 00000KT 04/03 Q1024 Ptolemaida Macedonia
20/10/2014 LG87 200330Z 18003KT 04/02 Q1025 Seli Ski Center Macedonia
20/10/2014 LGW6 200330Z 00000KT 13/11 Q1025 Serres Macedonia
20/10/2014 LGD9 200330Z 20300KT 13/10 Q1025 Serres - Kerkini Macedonia
20/10/2014 LG14 200400Z 00000KT 114/81 Q10266 Serres - Proti Macedonia
07/10/2014 LGY8 071419Z 31505KT 9999 SCT036 10/00 Q1010 Thassos Macedonia
20/10/2014 LGR9 200330Z 27002KT 15/12 Q1025 Thessaloniki Macedonia
20/10/2014 LGF0 200330Z 00000KT 04/03 Q1025 Variko Macedonia
02/10/2014 LG82 020930Z 22510G21KT 11/09 Q1003 Vassilitsa Macedonia
20/10/2014 LGC2 200330Z 18003KT 12/09 Q1023 Vatopedi - Athos Macedonia
20/10/2014 LGE9 200330Z 00000KT 08/07 Q1027 Vegoritida Macedonia
20/10/2014 LGE5 200330Z 00000KT 10/09 Q1021 Veroia Macedonia
20/10/2014 LG98 200330Z 00000KT 01/M01 Q1025 Vlasti - Kozani Macedonia
20/10/2014 LGF5 200401Z 11700KT 07/05 Q1024 Vounochori - Kavala Macedonia
20/10/2014 LGU5 200330Z 00000KT 14/06 Q1022 Agioi Theodoroi Peloponissos
20/10/2014 LGU7 200330Z 11300KT 11/M09 Q1021 Alagonia - Messinia Peloponissos
20/10/2014 LG52 200330Z 00000KT 10/07 Q1021 Amaliada Peloponissos
18/10/2014 LG77 181700Z 00016KT 22/14 Q1016 Andritsaina Peloponissos
20/10/2014 LGU6 200330Z 33800KT 12/02 Q1022 Arfara - Messinia Peloponissos
20/10/2014 LGT3 200330Z 29300KT 12/08 Q1024 Argos Peloponissos
17/10/2014 LGA8 172100Z 00000KT 00/00 Q 0 Chalandritsa Peloponissos
20/10/2014 LGV0 200330Z 15805KT 15/05 Q1023 Derveni Peloponissos
28/09/2014 LGK4 280630Z 15801KT -RA 03/02 Q1021 Elati Peloponissos
20/10/2014 LGC3 200330Z 06801KT 11/00 Q1020 Foloi - Ilia Peloponissos
20/10/2014 LGX6 200330Z 02302KT 13/M04 Q1023 Geraki Peloponissos
20/10/2014 LGB7 200330Z 00000KT 11/05 Q1021 Ilia - Vartholomio Peloponissos
20/10/2014 LG85 200330Z 15801KT 14/09 Q1023 Isthmos Peloponissos
20/10/2014 LG6A 200330Z 00003KT 16/M01 Q1021 Kalamata Peloponissos
20/10/2014 LGV7 200330Z 15800KT 02/00 Q1024 Kalavryta Peloponissos
20/10/2014 LGZ3 200330Z 04505KT 15/07 Q1021 Kardamyli Peloponissos
20/10/2014 LGJ5 200330Z 33804KT 16/09 Q1021 Katakolo Peloponissos
20/10/2014 LGP7 200330Z 11300KT 05/01 Q1023 016 Kato Vlassia Peloponissos
27/09/2014 LGB2 272000Z 20301KT 27/23 Q1011 Katoachaia Peloponissos
19/10/2014 LGB5 191030Z 00015G31KT 20/12 Q1022 Kavomalias Peloponissos
17/10/2014 LGM7 170630Z 31504KT 25/17 Q1017 Kranidi Peloponissos
20/10/2014 LGV1 200330Z 11300KT 14/07 Q1021 Kyparissia Peloponissos
20/10/2014 LGW9 200330Z 00000KT 12/M10 Q1022 Lagadia Peloponissos
20/10/2014 LG92 200330Z 00000KT 14/05 Q1020 Lappa-Larissos-Achaia Peloponissos
07/10/2014 LG91 070630Z 00000KT 21/15 Q1012 Lousika-Olenias-Achaia Peloponissos
20/10/2014 LGV4 200330Z 02303G14KT 11/06 Q1020 Lykochia Peloponissos
20/10/2014 LGG5 200230Z 04502KT 09/05 Q1023 Megalopoli Peloponissos
20/10/2014 LGV2 200330Z 09000KT 10/03 Q1022 Messinia - Kopanaki Peloponissos
20/10/2014 LGF8 200330Z 00008KT 18/02 Q1021 Molaoi Peloponissos
20/10/2014 LG56 200330Z 00012KT 19/08 Q1022 Monemvasia Peloponissos
20/10/2014 LGE1 200330Z 18000KT 06/05 Q1023 Nemea Peloponissos
20/10/2014 LGD5 200330Z 00000KT 07/04 Q1022 Oleni - Ilia Peloponissos
19/10/2014 LGB3 191130Z 09004KT 26/11 Q1021 Olympia Peloponissos
20/10/2014 LGV6 200330Z 11308KT 08/M16 Q1025 Panachaiko Oros Peloponissos
20/10/2014 LGZ1 200330Z 02303KT 15/06 Q1021 Patra Peloponissos
19/10/2014 LG79 182105Z 00000G31104KT 231/191 Q10190 Patra - Agia Peloponissos
20/10/2014 LG71 200400Z 0671728G3456KT 145/63 Q10217 Patra - Drosia Peloponissos
20/10/2014 LG84 200330Z 06806KT 16/10 Q1022 Patra - Port Peloponissos
20/10/2014 LG59 200330Z 09003KT 15/05 Q1021 Pirgos Peloponissos
20/10/2014 LGH8 200330Z 04510KT 17/12 Q1023 Rio Peloponissos
20/10/2014 LGT9 200330Z 09002KT 16/01 Q1020 Romanos - Patra Peloponissos
16/10/2014 LGA0 162330Z 18005KT 22/20 Q1017 Sagaiika Peloponissos
19/10/2014 LGF7 190730Z 27005KT 21/13 Q1024 Sparti Peloponissos
20/10/2014 LGS2 200330Z 33800KT 10/M11 Q1022 Stemnitsa Peloponissos
20/10/2014 LGR1 200330Z 22503KT 09/M05 Q1022 Trikala Korinthias Peloponissos
20/10/2014 LG83 200330Z 00000KT 02/01 Q1024 Tripoli Peloponissos
20/10/2014 LGU9 200330Z 00000KT 01/M04 Q1023 Vytina Peloponissos
20/10/2014 LG86 200330Z 04502KT 15/06 Q1021 Zaxaro Peloponissos
20/10/2014 LGN2 200330Z 00000KT 14/09 Q1026 Alonissos Sporades
20/10/2014 LGI1 200330Z 31505KT 15/09 Q1024 Skyros Sporades
20/10/2014 LGH9 200330Z 02300KT 13/08 Q1025 Agrinio Sterea Ellada
20/10/2014 LGC7 200330Z 06801KT 13/10 Q1022 Aitoliko Sterea Ellada
20/10/2014 LG29 200330Z 18000KT 06/05 Q1025 Amfiklia Sterea Ellada
15/10/2014 LGH1 150700Z 00000G31104KT 184/143 Q10158 Amfiklia 2 Sterea Ellada
20/10/2014 LGG8 200330Z 04509KT 13/09 Q1026 Antikira Sterea Ellada
20/10/2014 LG97 200410Z 00000KT 09/00 Q1023 Arachova Sterea Ellada
20/10/2014 LGC5 200330Z 06804KT 09/M03 Q1026 Arahova Sterea Ellada
19/10/2014 LGH0 192130Z 27001KT 12/07 Q1025 Avlida Sterea Ellada
18/10/2014 LGR2 181700Z 00000KT 19/14 Q1018 Dam of Mornos Sterea Ellada
20/10/2014 LGR3 200330Z 00000KT 06/04 Q1025 Diakopi of Lidoriki Sterea Ellada
20/10/2014 LGW5 200330Z 00000KT 09/08 Q1025 Domokos Sterea Ellada
14/10/2014 LG21 141323Z 24804KT 29/15 Q1014 Evia - Chalkida Sterea Ellada
16/10/2014 LGY4 160530Z 29307KT 24/10 Q1016 Galaxidi Sterea Ellada
20/10/2014 LGC8 200400Z 00000G864KT 118/90 Q10221 Gavalou - Aitol/nia Sterea Ellada
20/10/2014 LGJ7 200330Z 00000KT 11/08 Q1026 Kaparelli Sterea Ellada
20/10/2014 LGC9 200330Z 00000KT 01/00 Q1026 Karpenisi Sterea Ellada
20/10/2014 LGP9 200330Z 27003KT 11/07 Q1022 Kleidi Viotias Sterea Ellada
20/10/2014 LGR4 200330Z 24801KT 09/M03 Q1024 Koniakos of Lidoriki Sterea Ellada
20/10/2014 LG5A 200330Z 29303KT 10/08 Q1024 Kopaida Sterea Ellada
20/10/2014 LGV9 200230Z 31500KT 12/09 Q1025 Lamia Sterea Ellada
18/10/2014 LGJ8 182130Z 04501KT 21/13 Q1021 Lefkochori Sterea Ellada
20/10/2014 LGI8 200330Z 24803KT 09/07 Q1026 Livadeia Sterea Ellada
20/10/2014 LGE7 200330Z 00000KT 08/07 Q1023 Makrakomi Sterea Ellada
20/10/2014 LGA6 200330Z 00000KT M01/M02 Q1025 Mavrolithari - Vardousia Sterea Ellada
20/10/2014 LGK8 200330Z 06803KT 07/06 Q1023 Myriki Sterea Ellada
20/10/2014 LGG4 200330Z 11301KT 07/M03 Q1023 Orini Nafpaktia Sterea Ellada
01/10/2014 LGA4 010700Z 09009KT -SN 02/M02 Q1009 Parnassos Sterea Ellada
18/10/2014 LGF9 181700Z 00016G27KT 13/05 Q1018 Parnassos1950 Sterea Ellada
20/10/2014 LGL0 200330Z 00000KT 06/05 Q1026 Polydroso Sterea Ellada
07/10/2014 LGR7 071230Z 04508KT 11/09 Q1025 Prasino - Viotia Sterea Ellada
20/10/2014 LG69 200330Z 33800KT 10/06 Q1024 Tanagra Sterea Ellada
20/10/2014 LGO6 200330Z 24804KT 15/12 Q1025 Theologos Sterea Ellada
20/10/2014 LG94 200330Z 00000KT 106/96 Q10247 Hortiatis Thes/niki
20/10/2014 LG15 200413Z 03600KT 17/01 Q1024 Kamara Thes/niki Thes/niki
18/10/2014 LGA5 181700Z 31500KT 18/14 Q1017 Lagadas Thes/niki
24/09/2014 LG11 240730Z 12901KT 10/06 Q1006 West Thes/niki Thes/niki
15/10/2014 LGV5 150830Z 09002KT 20/17 Q1016 Tsamantas Thesprotia
20/10/2014 LGL4 200330Z 00000KT 04/03 Q1026 Gardiki Thessalia
20/10/2014 LGW3 200230Z 33802KT 11/09 Q1024 Kalabaka Thessalia
20/10/2014 LG2A 200330Z 27000KT 09/08 Q1026 Karditsa Thessalia
20/10/2014 LG41 200350Z 202864G1728KT 109/99 Q10235 Larissa Thessalia
20/10/2014 LGU3 192100Z 00000G864KT 132/114 Q10252 Larissa Thessalia
20/10/2014 LGL6 200330Z 00000KT 11/09 Q1024 Larissa Thessalia
20/10/2014 LGS8 200330Z 00000KT 09/08 Q1025 Larissa - Agia Thessalia
28/09/2014 LGL7 282130Z 24812KT 16/05 Q1014 Limni Plastira Thessalia
26/09/2014 LGU4 260700Z 29304KT 04/M07 Q1013 Olympos Thessalia
20/10/2014 LG7A 200400Z 337864G5238KT 123/95 Q10239 Pedio Areos Volou Thessalia
20/10/2014 LGE2 200330Z 00000KT 02/01 Q1025 Pertouli Thessalia
20/10/2014 LGY2 200330Z 04505KT 11/08 Q1024 Portaria - Pelio Thessalia
20/10/2014 LG80 200330Z 27002KT 15/10 Q1026 Skopelos - Sporades Thessalia
19/10/2014 LG24 191230Z 00004KT 19/12 Q1027 Sporades - Skiathos Thessalia
20/10/2014 LG57 200330Z 29300KT 10/08 Q1025 Trikala Thessalia
20/10/2014 LG51 200330Z 00000KT 13/11 Q1024 Volos Thessalia
20/10/2014 LGG3 200330Z 24802KT 12/08 Q1027 Zagora EAA Thessalia
19/10/2014 LGD8 192030Z 02304KT 08/04 Q1027 Alexandroupolis Thraki
20/10/2014 LGM9 200330Z 04502KT 07/04 Q1023 Imeros Thraki
09/10/2014 LG35 091750Z 33604KT 23/15 Q1013 Komotini Thraki
20/10/2014 LGL2 200330Z 22501KT 06/03 Q1025 Metaxades - Evros Thraki
20/10/2014 LG31 200330Z 18000KT 03/01 Q1024 Orestiada Thraki
20/10/2014 LGC1 200330Z 02303KT 15/07 Q1024 Samothraki Thraki
20/10/2014 LGC6 200330Z 02300KT 07/05 Q1025 Xanthi Thraki
www.meteorologia.gr